Time;durP1;ratioP1;P1;durP2;ratioP2;P2;SDS_P1;SDS_P2;PMS_P1;PMS_P2;Temp;Humidity;BMP_temperature;BMP_pressure;BME280_temperature;BME280_humidity;BME280_pressure;Samples;Min_cycle;Max_cycle;Signal;HPM_P1;HPM_P2
2022/03/17 00:02:15;;;;;;;;;;;;;;;14.25;43.24;101311.81;4412407;32;19988;-72
2022/03/17 00:04:40;;;;;;;;;;;;;;;14.29;43.37;101320.22;4409773;32;20033;-72
2022/03/17 00:07:07;;;;;;;;;;;;;;;14.23;43.54;101317.12;4409101;32;19957;-72
2022/03/17 00:09:33;;;;;;;;;;;;;;;14.38;42.92;101318.28;4410358;32;20038;-72
2022/03/17 00:12:00;;;;;;;;;;;;;;;14.40;43.28;101323.50;4409099;32;19997;-72
2022/03/17 00:14:26;;;;;;;;;;;;;;;14.47;43.10;101328.94;4410525;32;19958;-72
2022/03/17 00:16:57;;;;;;;;;;;;;;;14.35;43.43;101318.37;4409413;32;19964;-72
2022/03/17 00:19:23;;;;;;;;;;;;;;;13.96;43.79;101330.81;4408333;32;20364;-72
2022/03/17 00:21:48;;;;;;;;;;;;;;;14.09;43.78;101334.50;4409364;32;20324;-72
2022/03/17 00:24:13;;;;;;;;;;;;;;;13.77;43.66;101335.41;4408760;32;20320;-72
2022/03/17 00:26:39;;;;;;;;;;;;;;;13.79;44.28;101357.59;4408118;32;20000;-71
2022/03/17 00:29:08;;;;;;;;;;;;;;;13.67;44.31;101347.00;4407568;32;19949;-71
2022/03/17 00:31:35;;;;;;;;;;;;;;;13.96;43.66;101348.59;4395932;32;19958;-71
2022/03/17 00:34:00;;;;;;;;;;;;;;;14.06;43.77;101346.72;4409523;32;19946;-71
2022/03/17 00:36:26;;;;;;;;;;;;;;;14.11;43.85;101356.72;4410262;32;19986;-71
2022/03/17 00:38:52;;;;;;;;;;;;;;;13.77;44.36;101360.88;4409767;32;19965;-71
2022/03/17 00:41:18;;;;;;;;;;;;;;;13.93;44.50;101362.87;4408295;32;20037;-71
2022/03/17 00:43:43;;;;;;;;;;;;;;;14.10;43.67;101367.22;4409445;32;20224;-71
2022/03/17 00:46:09;;;;;;;;;;;;;;;14.18;43.81;101371.44;4400849;32;20331;-71
2022/03/17 00:48:36;;;;;;;;;;;;;;;14.21;43.43;101367.72;4409373;32;19949;-71
2022/03/17 00:51:02;;;;;;;;;;;;;;;13.84;44.31;101369.16;4410125;32;20617;-71
2022/03/17 00:53:28;;;;;;;;;;;;;;;13.94;44.30;101378.59;4408839;32;20000;-71
2022/03/17 00:55:57;;;;;;;;;;;;;;;13.76;44.40;101379.09;4408082;32;20267;-70
2022/03/17 00:58:25;;;;;;;;;;;;;;;14.12;43.76;101387.41;4408670;32;19966;-70
2022/03/17 01:00:50;;;;;;;;;;;;;;;13.87;44.13;101395.78;4409819;32;20331;-70
2022/03/17 01:03:16;;;;;;;;;;;;;;;14.14;43.81;101395.44;4408966;32;20043;-70
2022/03/17 01:05:43;;;;;;;;;;;;;;;14.16;43.43;101396.56;4409650;32;20048;-70
2022/03/17 01:08:09;;;;;;;;;;;;;;;14.20;43.29;101400.09;4409391;32;19974;-70
2022/03/17 01:10:38;;;;;;;;;;;;;;;13.51;44.13;101395.91;4408549;32;19950;-70
2022/03/17 01:13:05;;;;;;;;;;;;;;;13.50;43.90;101397.13;4408674;32;20311;-70
2022/03/17 01:15:31;;;;;;;;;;;;;;;13.70;43.38;101400.66;4409592;32;19966;-70
2022/03/17 01:17:59;;;;;;;;;;;;;;;13.47;43.96;101402.91;4408469;32;20011;-70
2022/03/17 01:20:25;;;;;;;;;;;;;;;13.72;43.49;101408.72;4402927;32;19994;-70
2022/03/17 01:22:50;;;;;;;;;;;;;;;13.79;43.22;101406.50;4409592;32;20031;-70
2022/03/17 01:25:19;;;;;;;;;;;;;;;13.48;43.83;101404.47;4409524;32;19957;-70
2022/03/17 01:27:46;;;;;;;;;;;;;;;13.69;42.96;101407.53;4408098;32;19997;-70
2022/03/17 01:30:12;;;;;;;;;;;;;;;13.53;43.29;101404.72;4399115;32;19977;-70
2022/03/17 01:32:38;;;;;;;;;;;;;;;13.77;42.56;101413.81;4409281;32;20009;-70
2022/03/17 01:35:28;;;;;;;;;;;;;;;13.74;42.53;101414.69;4408425;32;20005;-70
2022/03/17 01:37:55;;;;;;;;;;;;;;;13.79;42.18;101431.94;4410077;32;19989;-70
2022/03/17 01:40:23;;;;;;;;;;;;;;;13.55;42.26;101441.06;4409491;32;20005;-70
2022/03/17 01:42:48;;;;;;;;;;;;;;;13.45;42.26;101450.59;4408408;32;19973;-70
2022/03/17 01:45:16;;;;;;;;;;;;;;;13.16;42.85;101446.87;4407948;32;20004;-70
2022/03/17 01:47:59;;;;;;;;;;;;;;;13.57;42.16;101456.34;4409433;32;20321;-70
2022/03/17 01:50:24;;;;;;;;;;;;;;;13.39;42.05;101455.19;4407730;32;19950;-70
2022/03/17 01:52:58;;;;;;;;;;;;;;;13.48;41.88;101459.00;4408332;32;19972;-70
2022/03/17 01:55:25;;;;;;;;;;;;;;;13.72;41.69;101459.63;4408280;32;20735;-70
2022/03/17 01:57:51;;;;;;;;;;;;;;;13.64;41.97;101463.84;4406901;32;20009;-70
2022/03/17 02:00:18;;;;;;;;;;;;;;;13.61;42.30;101465.56;4407364;32;19981;-71
2022/03/17 02:02:47;;;;;;;;;;;;;;;13.68;41.79;101473.84;4407844;32;20484;-71
2022/03/17 02:05:14;;;;;;;;;;;;;;;13.46;42.20;101474.81;4410385;32;19957;-71
2022/03/17 02:07:42;;;;;;;;;;;;;;;13.44;42.88;101478.06;4411011;32;20117;-70
2022/03/17 02:10:09;;;;;;;;;;;;;;;13.36;43.63;101476.66;4407745;32;19997;-70
2022/03/17 02:15:19;;;;;;;;;;;;;;;12.84;45.06;101492.75;4407838;32;19986;-70
2022/03/17 02:17:45;;;;;;;;;;;;;;;13.43;43.86;101484.16;4409620;32;19964;-70
2022/03/17 02:20:12;;;;;;;;;;;;;;;13.54;43.83;101488.34;4408734;32;19999;-70
2022/03/17 02:22:41;;;;;;;;;;;;;;;13.02;45.02;101503.69;4409765;32;20093;-70
2022/03/17 02:25:39;;;;;;;;;;;;;;;13.51;44.02;101497.72;4408993;32;19957;-70
2022/03/17 02:27:52;;;;;;;;;;;;;;;13.40;44.00;101499.19;4412354;32;20046;-70
2022/03/17 02:30:20;;;;;;;;;;;;;;;13.88;43.32;101502.06;4410439;32;20004;-70
2022/03/17 02:32:46;;;;;;;;;;;;;;;13.65;43.70;101499.38;4411629;32;19950;-70
2022/03/17 02:35:34;;;;;;;;;;;;;;;13.79;43.57;101502.69;4411090;32;20400;-70
2022/03/17 02:38:13;;;;;;;;;;;;;;;13.81;43.53;101493.75;4411707;32;20409;-70
2022/03/17 02:40:40;;;;;;;;;;;;;;;13.86;43.66;101498.84;4410827;32;19984;-70
2022/03/17 02:43:06;;;;;;;;;;;;;;;13.87;43.57;101492.75;4411406;32;19968;-70
2022/03/17 02:45:32;;;;;;;;;;;;;;;13.69;43.80;101503.72;4411695;32;20184;-70
2022/03/17 02:47:58;;;;;;;;;;;;;;;13.77;43.52;101491.00;4412135;32;19957;-70
2022/03/17 02:50:37;;;;;;;;;;;;;;;13.92;43.23;101497.09;4409747;32;20347;-70
2022/03/17 02:53:06;;;;;;;;;;;;;;;13.94;43.26;101503.09;4411467;32;19946;-70
2022/03/17 02:55:35;;;;;;;;;;;;;;;13.72;43.41;101507.72;4410531;32;20347;-70
2022/03/17 02:58:01;;;;;;;;;;;;;;;13.72;43.52;101505.66;4411911;32;19957;-70
2022/03/17 03:00:27;;;;;;;;;;;;;;;13.78;43.05;101512.38;4409664;32;20425;-70
2022/03/17 03:02:56;;;;;;;;;;;;;;;14.07;42.79;101504.78;4410648;32;20001;-69
2022/03/17 03:05:22;;;;;;;;;;;;;;;13.80;43.16;101521.22;4411890;32;20419;-69
2022/03/17 03:07:48;;;;;;;;;;;;;;;14.08;42.65;101520.50;4410746;32;20381;-69
2022/03/17 03:10:14;;;;;;;;;;;;;;;13.94;42.59;101515.19;4410465;32;20336;-69
2022/03/17 03:12:44;;;;;;;;;;;;;;;13.73;43.41;101529.09;4410698;32;20370;-69
2022/03/17 03:15:09;;;;;;;;;;;;;;;13.56;43.37;101510.53;4411852;32;19985;-69
2022/03/17 03:17:37;;;;;;;;;;;;;;;13.80;42.92;101523.25;4412669;32;20495;-69
2022/03/17 03:20:02;;;;;;;;;;;;;;;13.87;42.58;101523.88;4410703;32;20544;-69
2022/03/17 03:22:36;;;;;;;;;;;;;;;13.67;43.30;101514.69;4411053;32;20038;-69
2022/03/17 03:25:25;;;;;;;;;;;;;;;13.54;43.11;101516.62;4410301;32;20351;-69
2022/03/17 03:27:52;;;;;;;;;;;;;;;13.83;42.57;101511.87;4395933;32;20394;-69
2022/03/17 03:30:20;;;;;;;;;;;;;;;13.71;42.49;101518.22;4411308;32;19999;-69
2022/03/17 03:33:07;;;;;;;;;;;;;;;13.16;43.06;101512.66;4412248;32;21726;-69
2022/03/17 03:38:27;;;;;;;;;;;;;;;13.92;41.94;101514.06;4410418;32;20083;-69
2022/03/17 03:40:53;;;;;;;;;;;;;;;13.96;41.57;101518.41;4410111;32;19997;-69
2022/03/17 03:43:19;;;;;;;;;;;;;;;13.94;41.51;101525.75;4410494;32;20005;-69
2022/03/17 03:45:54;;;;;;;;;;;;;;;13.98;41.02;101529.28;4410695;32;19966;-69
2022/03/17 03:48:44;;;;;;;;;;;;;;;14.19;40.83;101531.56;4408132;32;19949;-69
2022/03/17 03:51:31;;;;;;;;;;;;;;;14.19;40.73;101537.22;4410062;32;20003;-69
2022/03/17 03:54:17;;;;;;;;;;;;;;;14.15;40.75;101541.38;4408931;32;19956;-69
2022/03/17 03:59:20;;;;;;;;;;;;;;;14.46;39.72;101548.25;3952397;32;15748571;-68
2022/03/17 04:02:09;;;;;;;;;;;;;;;14.46;39.72;101548.25;4427205;32;20019;-69
2022/03/17 04:04:35;;;;;;;;;;;;;;;14.30;40.38;101539.81;4415672;32;20134;-69
2022/03/17 04:07:03;;;;;;;;;;;;;;;14.44;40.24;101547.91;4428112;32;20035;-69
2022/03/17 04:09:45;;;;;;;;;;;;;;;13.99;41.64;101551.47;4427049;32;19989;-68
2022/03/17 04:12:12;;;;;;;;;;;;;;;14.19;41.42;101542.06;4430575;32;20517;-68
2022/03/17 04:14:58;;;;;;;;;;;;;;;14.20;41.64;101546.53;4433725;32;20012;-68
2022/03/17 04:17:23;;;;;;;;;;;;;;;14.10;42.33;101551.19;4433517;32;20386;-68
2022/03/17 04:20:09;;;;;;;;;;;;;;;14.23;41.90;101542.81;4430280;32;19968;-68
2022/03/17 04:22:38;;;;;;;;;;;;;;;14.35;41.95;101547.75;4428720;32;19960;-68
2022/03/17 04:25:05;;;;;;;;;;;;;;;13.95;42.38;101547.94;4429771;32;19977;-68
2022/03/17 04:27:31;;;;;;;;;;;;;;;14.17;42.54;101551.00;4429723;32;19957;-68
2022/03/17 04:29:57;;;;;;;;;;;;;;;14.45;42.09;101553.13;4426937;32;19972;-68
2022/03/17 04:32:23;;;;;;;;;;;;;;;14.46;42.11;101549.06;4430424;32;19949;-68
2022/03/17 04:35:00;;;;;;;;;;;;;;;14.44;42.03;101556.41;4430803;32;20013;-68
2022/03/17 04:37:26;;;;;;;;;;;;;;;14.43;41.84;101569.78;4428980;32;19953;-68
2022/03/17 04:39:51;;;;;;;;;;;;;;;14.39;42.18;101571.12;4425252;32;21078;-68
2022/03/17 04:42:17;;;;;;;;;;;;;;;14.28;42.32;101577.06;4428294;32;20351;-68
2022/03/17 04:44:43;;;;;;;;;;;;;;;13.96;43.07;101574.19;4417160;32;20301;-69
2022/03/17 04:47:09;;;;;;;;;;;;;;;14.19;42.70;101587.38;4429327;32;19986;-69
2022/03/17 04:49:34;;;;;;;;;;;;;;;13.95;43.29;101576.25;4427932;32;20315;-68
2022/03/17 04:52:00;;;;;;;;;;;;;;;14.11;43.59;101598.06;4427831;32;19957;-68
2022/03/17 04:54:26;;;;;;;;;;;;;;;13.94;44.06;101600.09;4428452;32;19989;-68
2022/03/17 04:56:52;;;;;;;;;;;;;;;14.29;43.18;101609.78;4430255;32;20018;-69
2022/03/17 04:59:22;;;;;;;;;;;;;;;14.12;43.95;101613.03;4427753;32;19954;-69
2022/03/17 05:01:51;;;;;;;;;;;;;;;14.10;44.14;101619.13;4424721;32;19971;-69
2022/03/17 05:04:41;;;;;;;;;;;;;;;14.16;44.15;101616.56;4421783;32;19961;-69
2022/03/17 05:07:26;;;;;;;;;;;;;;;14.20;44.21;101620.13;4426744;32;19963;-69
2022/03/17 05:09:51;;;;;;;;;;;;;;;14.19;44.26;101619.31;4424595;32;19954;-69
2022/03/17 05:12:17;;;;;;;;;;;;;;;14.09;44.10;101623.22;4416058;32;19969;-68
2022/03/17 05:14:44;;;;;;;;;;;;;;;14.28;43.14;101622.38;4419548;32;19972;-68
2022/03/17 05:17:10;;;;;;;;;;;;;;;14.37;43.64;101633.06;4418354;32;20001;-69
2022/03/17 05:19:35;;;;;;;;;;;;;;;14.27;43.15;101631.28;4419087;32;20252;-69
2022/03/17 05:22:01;;;;;;;;;;;;;;;14.43;42.93;101634.94;4407541;32;19980;-69
2022/03/17 05:24:28;;;;;;;;;;;;;;;14.34;42.97;101631.09;4417101;32;20186;-69
2022/03/17 05:26:56;;;;;;;;;;;;;;;14.39;42.74;101636.25;4417763;32;20039;-69
2022/03/17 05:29:21;;;;;;;;;;;;;;;14.34;42.48;101634.75;4414960;32;20363;-69
2022/03/17 05:31:47;;;;;;;;;;;;;;;14.38;42.42;101648.81;4419015;32;19973;-69
2022/03/17 05:34:12;;;;;;;;;;;;;;;14.25;42.75;101645.09;4417922;32;20086;-69
2022/03/17 05:36:38;;;;;;;;;;;;;;;14.33;41.77;101649.34;4420094;32;20096;-69
2022/03/17 05:39:04;;;;;;;;;;;;;;;14.37;41.50;101647.22;4417325;32;19976;-69
2022/03/17 05:41:31;;;;;;;;;;;;;;;14.26;41.06;101649.53;4417095;32;20035;-69
2022/03/17 05:43:57;;;;;;;;;;;;;;;14.49;40.88;101661.47;4418166;32;20001;-69
2022/03/17 05:46:25;;;;;;;;;;;;;;;14.08;41.31;101664.88;4421810;32;20009;-68
2022/03/17 05:48:53;;;;;;;;;;;;;;;14.20;40.78;101659.75;4420662;32;19981;-69
2022/03/17 05:51:20;;;;;;;;;;;;;;;14.34;40.56;101659.44;4415510;32;19997;-69
2022/03/17 05:53:47;;;;;;;;;;;;;;;14.50;40.33;101663.06;4415153;32;20036;-69
2022/03/17 05:56:17;;;;;;;;;;;;;;;14.67;39.89;101661.78;4417410;32;19958;-69
2022/03/17 05:58:43;;;;;;;;;;;;;;;14.53;40.16;101669.88;4415957;32;20129;-69
2022/03/17 06:01:09;;;;;;;;;;;;;;;14.76;39.82;101673.28;4415468;32;20039;-69
2022/03/17 06:03:35;;;;;;;;;;;;;;;14.44;40.59;101666.84;4416524;32;19998;-69
2022/03/17 06:06:03;;;;;;;;;;;;;;;14.52;40.47;101680.41;4418325;32;19971;-69
2022/03/17 06:08:29;;;;;;;;;;;;;;;14.60;40.31;101690.31;4417105;32;20064;-69
2022/03/17 06:10:58;;;;;;;;;;;;;;;14.42;40.53;101689.19;4416443;32;19976;-69
2022/03/17 06:13:25;;;;;;;;;;;;;;;14.53;40.09;101692.53;4418061;32;19961;-69
2022/03/17 06:15:50;;;;;;;;;;;;;;;14.69;39.94;101703.84;4406383;32;19960;-69
2022/03/17 06:18:16;;;;;;;;;;;;;;;14.69;39.83;101701.81;4417106;32;20450;-69
2022/03/17 06:20:51;;;;;;;;;;;;;;;14.60;40.06;101693.16;4415454;32;19950;-69
2022/03/17 06:23:17;;;;;;;;;;;;;;;14.62;39.72;101693.50;4415666;32;20305;-69
2022/03/17 06:25:42;;;;;;;;;;;;;;;14.54;39.93;101699.81;4413715;32;20049;-70
2022/03/17 06:28:09;;;;;;;;;;;;;;;14.60;39.85;101695.19;4415977;32;20453;-69
2022/03/17 06:30:35;;;;;;;;;;;;;;;14.37;39.87;101693.34;4419484;32;20331;-70
2022/03/17 06:33:04;;;;;;;;;;;;;;;14.48;39.64;101704.41;4420265;32;20275;-69
2022/03/17 06:35:32;;;;;;;;;;;;;;;14.30;40.19;101704.03;4409295;32;20570;-69
2022/03/17 06:37:58;;;;;;;;;;;;;;;14.37;39.45;101713.16;4419357;32;19993;-70
2022/03/17 06:40:25;;;;;;;;;;;;;;;14.48;39.29;101718.56;4414095;32;19961;-70
2022/03/17 06:42:51;;;;;;;;;;;;;;;14.31;39.59;101714.13;4420555;32;19981;-70
2022/03/17 06:45:18;;;;;;;;;;;;;;;14.26;39.32;101709.78;4419114;32;19989;-69
2022/03/17 06:47:44;;;;;;;;;;;;;;;14.48;38.96;101712.91;4418569;32;20003;-69
2022/03/17 06:50:12;;;;;;;;;;;;;;;14.47;38.99;101722.63;4415435;32;20012;-70
2022/03/17 06:52:38;;;;;;;;;;;;;;;14.63;38.66;101720.59;4415225;32;19993;-70
2022/03/17 06:55:04;;;;;;;;;;;;;;;14.69;38.19;101724.47;4421012;32;19957;-69
2022/03/17 06:57:30;;;;;;;;;;;;;;;14.80;38.22;101727.84;4419521;32;20020;-70
2022/03/17 06:59:57;;;;;;;;;;;;;;;14.78;38.59;101726.69;4419234;32;19957;-70
2022/03/17 07:02:23;;;;;;;;;;;;;;;14.67;38.48;101726.19;4417934;32;20007;-70
2022/03/17 07:04:48;;;;;;;;;;;;;;;14.90;38.39;101734.47;4419983;32;20276;-70
2022/03/17 07:07:14;;;;;;;;;;;;;;;15.20;37.64;101725.56;4404104;32;20340;-70
2022/03/17 07:09:41;;;;;;;;;;;;;;;15.10;38.04;101733.12;4400740;32;19949;-70
2022/03/17 07:12:08;;;;;;;;;;;;;;;15.37;37.51;101735.69;4413842;32;20004;-70
2022/03/17 07:14:34;;;;;;;;;;;;;;;15.24;37.42;101726.25;4421305;32;19952;-70
2022/03/17 07:17:00;;;;;;;;;;;;;;;15.46;37.78;101724.44;4416500;32;20026;-70
2022/03/17 07:19:26;;;;;;;;;;;;;;;15.51;37.72;101732.44;4416597;32;19993;-70
2022/03/17 07:21:53;;;;;;;;;;;;;;;15.62;37.43;101738.59;4414325;32;20865;-70
2022/03/17 07:24:23;;;;;;;;;;;;;;;15.73;36.89;101744.75;4413644;32;20084;-70
2022/03/17 07:26:48;;;;;;;;;;;;;;;15.75;37.00;101740.22;4416340;32;19926;-71
2022/03/17 07:29:14;;;;;;;;;;;;;;;15.89;37.16;101748.31;4411542;32;19961;-71
2022/03/17 07:31:44;;;;;;;;;;;;;;;15.93;36.98;101749.00;4416251;32;20026;-71
2022/03/17 07:34:09;;;;;;;;;;;;;;;16.02;36.75;101745.50;4416528;32;19953;-71
2022/03/17 07:36:35;;;;;;;;;;;;;;;15.99;37.19;101743.56;4412117;32;19969;-71
2022/03/17 07:39:02;;;;;;;;;;;;;;;16.19;36.67;101746.19;4414176;32;19993;-71
2022/03/17 07:41:28;;;;;;;;;;;;;;;16.15;36.35;101748.34;4414980;32;19997;-71
2022/03/17 07:43:54;;;;;;;;;;;;;;;15.89;36.60;101745.47;4416785;32;20036;-71
2022/03/17 07:46:20;;;;;;;;;;;;;;;16.21;36.25;101735.19;4413467;32;19965;-71
2022/03/17 07:48:46;;;;;;;;;;;;;;;16.42;36.47;101726.78;4408778;32;20008;-71
2022/03/17 07:51:12;;;;;;;;;;;;;;;16.49;36.65;101734.31;4412650;32;20324;-71
2022/03/17 07:53:42;;;;;;;;;;;;;;;16.48;35.94;101747.72;4411616;32;20489;-71
2022/03/17 07:56:10;;;;;;;;;;;;;;;16.74;36.24;101754.97;4414207;32;20021;-71
2022/03/17 07:58:37;;;;;;;;;;;;;;;16.64;35.44;101755.31;4406372;32;20421;-71
2022/03/17 08:01:03;;;;;;;;;;;;;;;16.82;34.78;101762.03;4411046;32;20004;-71
2022/03/17 08:03:32;;;;;;;;;;;;;;;17.04;34.70;101762.91;4411667;32;19996;-71
2022/03/17 08:06:00;;;;;;;;;;;;;;;17.09;34.63;101750.12;4407919;32;20388;-71
2022/03/17 08:08:26;;;;;;;;;;;;;;;16.83;34.70;101766.44;4404683;32;20024;-71
2022/03/17 08:10:51;;;;;;;;;;;;;;;16.88;34.54;101777.22;4406957;32;19992;-71
2022/03/17 08:13:17;;;;;;;;;;;;;;;16.91;35.00;101773.47;4408701;32;19962;-71
2022/03/17 08:15:43;;;;;;;;;;;;;;;16.79;35.00;101779.19;4408656;32;20000;-70
2022/03/17 08:18:08;;;;;;;;;;;;;;;17.08;35.16;101786.31;4409750;32;20319;-71
2022/03/17 08:20:38;;;;;;;;;;;;;;;17.29;34.40;101791.28;4409045;32;21457;-70
2022/03/17 08:23:04;;;;;;;;;;;;;;;17.48;34.62;101792.25;4396810;32;20047;-72
2022/03/17 08:25:32;;;;;;;;;;;;;;;17.73;33.67;101795.00;4406377;32;20054;-72
2022/03/17 08:28:02;;;;;;;;;;;;;;;17.95;33.78;101798.66;4408502;32;20516;-72
2022/03/17 08:30:29;;;;;;;;;;;;;;;17.88;33.89;101798.91;4404422;32;20491;-72
2022/03/17 08:32:56;;;;;;;;;;;;;;;18.21;33.76;101797.22;4406073;32;20013;-72
2022/03/17 08:35:23;;;;;;;;;;;;;;;18.32;32.97;101794.78;4404142;32;20220;-72
2022/03/17 08:37:50;;;;;;;;;;;;;;;18.71;32.65;101805.44;4408510;32;19985;-72
2022/03/17 08:40:17;;;;;;;;;;;;;;;18.75;32.39;101803.22;4408883;32;21466;-72
2022/03/17 08:42:42;;;;;;;;;;;;;;;19.58;31.94;101805.81;4409824;32;20093;-75
2022/03/17 08:50:41;;;;;;;;;;;;;;;19.98;31.06;101803.59;4407962;32;20117;-70
2022/03/17 08:53:07;;;;;;;;;;;;;;;19.97;30.90;101809.78;4411312;32;19953;-71
2022/03/17 08:55:34;;;;;;;;;;;;;;;19.84;31.41;101809.94;4412247;32;20486;-71
2022/03/17 08:58:00;;;;;;;;;;;;;;;20.01;31.48;101807.53;4411910;32;20035;-71
2022/03/17 09:00:34;;;;;;;;;;;;;;;20.40;30.86;101804.47;4411253;32;19981;-70
2022/03/17 09:03:01;;;;;;;;;;;;;;;20.47;30.67;101811.91;4414423;32;20303;-72
2022/03/17 09:05:28;;;;;;;;;;;;;;;20.85;29.67;101812.06;4413885;32;20037;-71
2022/03/17 09:07:55;;;;;;;;;;;;;;;21.12;29.46;101806.25;4415020;32;19981;-71
2022/03/17 09:10:23;;;;;;;;;;;;;;;21.74;28.92;101818.53;4413442;32;20019;-71
2022/03/17 09:12:49;;;;;;;;;;;;;;;21.89;28.35;101830.03;4400242;32;20003;-71
2022/03/17 09:15:14;;;;;;;;;;;;;;;22.04;27.90;101834.53;4416004;32;20377;-72
2022/03/17 09:17:41;;;;;;;;;;;;;;;22.00;28.07;101844.59;4412814;32;20040;-72
2022/03/17 09:20:08;;;;;;;;;;;;;;;21.05;28.37;101844.59;4410858;32;20001;-72
2022/03/17 09:22:34;;;;;;;;;;;;;;;21.24;28.49;101848.16;4413668;32;20010;-71
2022/03/17 09:25:23;;;;;;;;;;;;;;;21.26;28.50;101854.97;4412880;32;20027;-73
2022/03/17 09:28:07;;;;;;;;;;;;;;;21.02;29.22;101857.00;4416226;32;19968;-72
2022/03/17 09:30:51;;;;;;;;;;;;;;;21.44;28.61;101848.34;4411255;32;20003;-72
2022/03/17 09:33:35;;;;;;;;;;;;;;;21.70;28.46;101852.31;4406747;32;20062;-72
2022/03/17 09:36:19;;;;;;;;;;;;;;;21.63;28.45;101862.06;4399468;32;20308;-72
2022/03/17 09:42:08;;;;;;;;;;;;;;;21.40;28.09;101865.72;4409378;32;20061;-71
2022/03/17 09:44:53;;;;;;;;;;;;;;;21.71;27.53;101865.34;4408101;32;20691;-72
2022/03/17 09:47:38;;;;;;;;;;;;;;;21.36;28.44;101865.09;4408327;32;19972;-71
2022/03/17 09:50:22;;;;;;;;;;;;;;;21.31;28.25;101865.78;4410366;32;20180;-70
2022/03/17 09:52:49;;;;;;;;;;;;;;;21.61;28.31;101873.22;4411913;32;20347;-70
2022/03/17 09:55:16;;;;;;;;;;;;;;;21.74;28.35;101881.59;4409111;32;19984;-71
2022/03/17 09:58:03;;;;;;;;;;;;;;;21.30;28.85;101872.75;4348582;32;20842;-70
2022/03/17 10:01:02;;;;;;;;;;;;;;;21.89;27.92;101870.16;4350008;32;19974;-72
2022/03/17 10:03:41;;;;;;;;;;;;;;;21.76;28.31;101863.91;4400694;32;19997;-70
2022/03/17 10:06:20;;;;;;;;;;;;;;;20.93;29.22;101888.50;4412497;32;20009;-70
2022/03/17 10:09:06;;;;;;;;;;;;;;;21.35;28.66;101872.09;4397406;32;20082;-70
2022/03/17 10:11:37;;;;;;;;;;;;;;;20.48;30.13;101882.94;4413649;32;20372;-70
2022/03/17 10:17:31;;;;;;;;;;;;;;;21.16;29.62;101902.13;3948400;32;15722617;-72
2022/03/17 10:20:24;;;;;;;;;;;;;;;21.16;29.62;101902.13;4419666;32;20004;-72
2022/03/17 10:23:06;;;;;;;;;;;;;;;20.92;29.71;101897.56;4424494;32;20013;-71
2022/03/17 10:26:03;;;;;;;;;;;;;;;20.86;29.88;101888.06;4358408;32;20010;-72
2022/03/17 10:28:52;;;;;;;;;;;;;;;21.34;29.07;101886.91;4370955;32;19999;-71
2022/03/17 10:31:59;;;;;;;;;;;;;;;21.64;28.86;101892.28;4347574;32;19967;-71
2022/03/17 10:34:55;;;;;;;;;;;;;;;21.31;29.03;101897.28;4423516;32;20015;-71
2022/03/17 10:37:39;;;;;;;;;;;;;;;21.78;29.11;101892.88;4421783;32;20043;-72
2022/03/17 10:40:29;;;;;;;;;;;;;;;21.92;28.00;101890.06;4423536;32;20001;-72
2022/03/17 10:46:11;;;;;;;;;;;;;;;22.12;27.57;101900.87;3948452;32;15722275;-73
2022/03/17 10:48:57;;;;;;;;;;;;;;;22.12;27.57;101900.87;4424005;32;20007;-71
2022/03/17 10:51:44;;;;;;;;;;;;;;;22.16;27.74;101901.47;4412042;32;20028;-74
2022/03/17 10:54:29;;;;;;;;;;;;;;;21.50;28.03;101904.47;4417129;32;19965;-71
2022/03/17 10:57:24;;;;;;;;;;;;;;;21.46;28.12;101923.12;4426061;32;19945;-72
2022/03/17 11:00:23;;;;;;;;;;;;;;;21.81;27.93;101920.56;4421934;32;19997;-72
2022/03/17 11:03:14;;;;;;;;;;;;;;;21.39;28.08;101935.72;4379252;32;20100;-71
2022/03/17 11:06:00;;;;;;;;;;;;;;;21.12;28.64;101930.12;4352412;32;19977;-70
2022/03/17 11:08:55;;;;;;;;;;;;;;;21.32;28.71;101932.41;4362742;32;20517;-70
2022/03/17 11:11:42;;;;;;;;;;;;;;;22.08;28.22;101934.66;4363485;32;20362;-70
2022/03/17 11:14:29;;;;;;;;;;;;;;;22.84;27.35;101941.16;4292734;33;20027;-71
2022/03/17 11:17:17;;;;;;;;;;;;;;;22.31;27.54;101922.38;4291399;33;20461;-71
2022/03/17 11:19:43;;;;;;;;;;;;;;;22.66;27.61;101926.19;4283021;33;19992;-72
2022/03/17 11:22:29;;;;;;;;;;;;;;;23.26;26.79;101929.34;4293275;33;20185;-73
2022/03/17 11:25:23;;;;;;;;;;;;;;;22.72;27.34;101910.66;4292135;33;19971;-72
2022/03/17 11:28:15;;;;;;;;;;;;;;;22.50;27.51;101924.63;4249490;33;20490;-73
2022/03/17 11:31:01;;;;;;;;;;;;;;;23.74;26.82;101930.56;4249829;33;20107;-72
2022/03/17 11:33:57;;;;;;;;;;;;;;;24.30;26.04;101929.25;4257381;33;20048;-72
2022/03/17 11:37:10;;;;;;;;;;;;;;;23.25;26.83;101934.31;4211081;33;21172;-71
2022/03/17 11:40:10;;;;;;;;;;;;;;;22.75;27.78;101928.97;4219410;33;19997;-72
2022/03/17 11:43:14;;;;;;;;;;;;;;;22.66;28.22;101932.72;4203042;33;19950;-72
2022/03/17 11:46:14;;;;;;;;;;;;;;;22.65;28.22;101931.16;4201039;33;20014;-72
2022/03/17 11:49:17;;;;;;;;;;;;;;;22.97;27.77;101966.69;4174614;34;20407;-72
2022/03/17 11:52:03;;;;;;;;;;;;;;;23.18;27.91;101939.63;4172134;34;20435;-72
2022/03/17 11:55:13;;;;;;;;;;;;;;;23.58;27.42;101965.63;4146121;34;20011;-72
2022/03/17 12:00:53;;;;;;;;;;;;;;;23.40;27.53;101928.50;3945521;32;15724456;-72
2022/03/17 12:03:44;;;;;;;;;;;;;;;23.67;27.01;101928.13;4422751;32;20382;-72
2022/03/17 12:09:10;;;;;;;;;;;;;;;23.93;26.89;101920.38;3943647;32;15722501;-72
2022/03/17 12:11:55;;;;;;;;;;;;;;;24.73;26.09;101925.28;4427551;32;20363;-72
2022/03/17 12:14:29;;;;;;;;;;;;;;;23.54;27.15;101921.94;4411683;32;20521;-71
2022/03/17 12:20:10;;;;;;;;;;;;;;;24.43;26.31;101932.53;3944762;32;15726586;-73
2022/03/17 12:23:02;;;;;;;;;;;;;;;24.43;26.31;101932.53;4410089;32;20696;-73
2022/03/17 12:26:08;;;;;;;;;;;;;;;24.20;26.29;101922.84;4422444;32;20134;-73
2022/03/17 12:29:04;;;;;;;;;;;;;;;24.76;25.90;101939.44;4356500;32;20878;-73
2022/03/17 12:31:51;;;;;;;;;;;;;;;24.58;26.14;101936.09;4418045;32;19985;-73
2022/03/17 12:34:36;;;;;;;;;;;;;;;24.53;26.01;101943.38;4421302;32;20003;-73
2022/03/17 12:37:23;;;;;;;;;;;;;;;23.78;26.87;101939.00;4419555;32;20075;-72
2022/03/17 12:40:25;;;;;;;;;;;;;;;23.92;26.71;101930.31;4384129;32;20496;-73
2022/03/17 12:43:11;;;;;;;;;;;;;;;24.07;26.49;101941.75;4419464;32;19987;-72
2022/03/17 12:45:58;;;;;;;;;;;;;;;24.28;26.41;101935.50;4421076;32;21059;-73
2022/03/17 12:48:45;;;;;;;;;;;;;;;24.48;26.21;101935.44;4421659;32;19949;-72
2022/03/17 12:51:48;;;;;;;;;;;;;;;25.29;25.38;101939.66;4373277;32;20404;-72
2022/03/17 12:54:25;;;;;;;;;;;;;;;24.73;25.87;101942.56;4373723;32;19999;-71
2022/03/17 12:57:09;;;;;;;;;;;;;;;24.71;25.98;101945.16;4376892;32;20028;-71
2022/03/17 13:00:05;;;;;;;;;;;;;;;24.81;26.27;101935.81;4373646;32;19955;-72
2022/03/17 13:03:01;;;;;;;;;;;;;;;24.52;26.62;101927.41;4371442;32;20006;-70
2022/03/17 13:09:16;;;;;;;;;;;;;;;25.15;25.91;101937.69;4370811;32;19954;-71
2022/03/17 13:15:10;;;;;;;;;;;;;;;24.43;26.05;101930.44;4374998;32;19973;-71
2022/03/17 13:18:01;;;;;;;;;;;;;;;24.01;26.91;101953.19;4345185;32;19966;-71
2022/03/17 13:20:51;;;;;;;;;;;;;;;22.93;28.19;101948.87;4408324;32;20011;-71
2022/03/17 13:23:43;;;;;;;;;;;;;;;22.78;28.48;101948.06;4411160;32;19946;-71
2022/03/17 13:26:33;;;;;;;;;;;;;;;22.95;28.31;101960.66;4423166;32;20470;-72
2022/03/17 13:29:19;;;;;;;;;;;;;;;23.30;27.82;101964.41;4421064;32;20659;-73
2022/03/17 13:32:16;;;;;;;;;;;;;;;23.01;28.48;101958.69;4410042;32;20008;-72
2022/03/17 13:35:08;;;;;;;;;;;;;;;22.40;29.27;101971.06;4412846;32;19974;-73
2022/03/17 13:37:35;;;;;;;;;;;;;;;22.11;29.48;101956.63;4411691;32;20335;-72
2022/03/17 13:40:04;;;;;;;;;;;;;;;22.18;29.72;101974.25;4411121;32;20000;-73
2022/03/17 13:43:06;;;;;;;;;;;;;;;21.94;29.76;101966.97;4409575;32;20086;-72
2022/03/17 13:45:34;;;;;;;;;;;;;;;22.29;29.57;101982.28;4412849;32;20029;-72
2022/03/17 13:48:16;;;;;;;;;;;;;;;22.04;29.77;101969.28;4413779;32;19953;-73